VLK0792 UHWW-UHBB
Flight info
| Callsign | VLK0792 |
|---|---|
| Flight time | N/A |
| Altitude | 35000 |
| Route | K0817F350 DCT DOLMA B356 TD B355 HAB/K0826F360 B150 AMERA DCT |
| Aircraft | T204/M-Q/L |
Departure
| Time | N/A |
|---|---|
| Airport | Vladivostok International Airport (UHWW) |
Arrival
| Time | 2026-05-03 21:09 |
|---|---|
| Airport | Ignatyevo Airport (UHBB) |
| Time | Latitude | Longitude | Altitude | Speed | Heading |
|---|---|---|---|---|---|
| 2026-05-03 20:15 | 48.71941 | 133.63796 | 35708 ft | 418 kts | 281° |
| 2026-05-03 20:15 | 48.73270 | 133.55247 | 35710 ft | 418 kts | 282° |
| 2026-05-03 20:16 | 48.74606 | 133.46710 | 35710 ft | 418 kts | 282° |
| 2026-05-03 20:16 | 48.75954 | 133.38159 | 35708 ft | 418 kts | 282° |
| 2026-05-03 20:17 | 48.77313 | 133.29575 | 35712 ft | 418 kts | 281° |
| 2026-05-03 20:17 | 48.78670 | 133.21056 | 35714 ft | 418 kts | 282° |
| 2026-05-03 20:18 | 48.80032 | 133.12511 | 35712 ft | 418 kts | 282° |
| 2026-05-03 20:18 | 48.81398 | 133.03984 | 35711 ft | 419 kts | 282° |
| 2026-05-03 20:19 | 48.82778 | 132.95410 | 35706 ft | 420 kts | 282° |
| 2026-05-03 20:19 | 48.84819 | 132.87148 | 35729 ft | 422 kts | 294° |
| 2026-05-03 20:20 | 48.87358 | 132.79160 | 35695 ft | 423 kts | 294° |
| 2026-05-03 20:20 | 48.89913 | 132.71100 | 35697 ft | 422 kts | 294° |
| 2026-05-03 20:21 | 48.92438 | 132.63112 | 35698 ft | 422 kts | 294° |
| 2026-05-03 20:21 | 48.94978 | 132.55080 | 35697 ft | 423 kts | 294° |
| 2026-05-03 20:22 | 48.97530 | 132.47031 | 35695 ft | 423 kts | 295° |
| 2026-05-03 20:22 | 49.00075 | 132.39009 | 35705 ft | 423 kts | 295° |
| 2026-05-03 20:23 | 49.02618 | 132.30901 | 35706 ft | 423 kts | 294° |
| 2026-05-03 20:23 | 49.05100 | 132.22821 | 35701 ft | 423 kts | 294° |
| 2026-05-03 20:24 | 49.07585 | 132.14712 | 35700 ft | 423 kts | 294° |
| 2026-05-03 20:24 | 49.10064 | 132.06633 | 35694 ft | 423 kts | 294° |
| 2026-05-03 20:25 | 49.12563 | 131.98488 | 35687 ft | 423 kts | 294° |
| 2026-05-03 20:25 | 49.15046 | 131.90416 | 35690 ft | 424 kts | 294° |
| 2026-05-03 20:26 | 49.17550 | 131.82288 | 35689 ft | 425 kts | 295° |
| 2026-05-03 20:26 | 49.20062 | 131.74170 | 35686 ft | 424 kts | 295° |
| 2026-05-03 20:27 | 49.22578 | 131.66049 | 35674 ft | 424 kts | 295° |
| 2026-05-03 20:27 | 49.25052 | 131.57887 | 35671 ft | 424 kts | 294° |
| 2026-05-03 20:28 | 49.27452 | 131.49661 | 35669 ft | 424 kts | 294° |
| 2026-05-03 20:28 | 49.29825 | 131.41444 | 35672 ft | 424 kts | 294° |
| 2026-05-03 20:29 | 49.32212 | 131.33165 | 35673 ft | 423 kts | 293° |
| 2026-05-03 20:29 | 49.34595 | 131.24919 | 35675 ft | 424 kts | 294° |
| 2026-05-03 20:30 | 49.36980 | 131.16684 | 35679 ft | 425 kts | 294° |
| 2026-05-03 20:30 | 49.39368 | 131.08464 | 35681 ft | 425 kts | 294° |
| 2026-05-03 20:31 | 49.41768 | 131.00218 | 35682 ft | 425 kts | 294° |
| 2026-05-03 20:31 | 49.44173 | 130.91971 | 35689 ft | 425 kts | 294° |
| 2026-05-03 20:32 | 49.46595 | 130.83693 | 35687 ft | 424 kts | 294° |
| 2026-05-03 20:32 | 49.48957 | 130.75626 | 34884 ft | 415 kts | 295° |
| 2026-05-03 20:32 | 49.50152 | 130.71542 | 33918 ft | 420 kts | 295° |
| 2026-05-03 20:33 | 49.51344 | 130.67482 | 33149 ft | 422 kts | 295° |
| 2026-05-03 20:33 | 49.52552 | 130.63388 | 32456 ft | 423 kts | 295° |
| 2026-05-03 20:33 | 49.53761 | 130.59303 | 31796 ft | 423 kts | 295° |
| 2026-05-03 20:33 | 49.54969 | 130.55222 | 31243 ft | 418 kts | 295° |
| 2026-05-03 20:34 | 49.56146 | 130.51245 | 30577 ft | 414 kts | 295° |
| 2026-05-03 20:34 | 49.57323 | 130.47261 | 29902 ft | 408 kts | 295° |
| 2026-05-03 20:34 | 49.58483 | 130.43337 | 29196 ft | 403 kts | 295° |
| 2026-05-03 20:34 | 49.59643 | 130.39414 | 28421 ft | 398 kts | 295° |
| 2026-05-03 20:35 | 49.60775 | 130.35596 | 27684 ft | 392 kts | 295° |
| 2026-05-03 20:35 | 49.61893 | 130.31831 | 26925 ft | 388 kts | 294° |
| 2026-05-03 20:35 | 49.63015 | 130.28064 | 26142 ft | 385 kts | 294° |
| 2026-05-03 20:35 | 49.64118 | 130.24364 | 25382 ft | 381 kts | 294° |
| 2026-05-03 20:36 | 49.65215 | 130.20689 | 24601 ft | 378 kts | 294° |
| 2026-05-03 20:36 | 49.66311 | 130.17011 | 23877 ft | 372 kts | 294° |
| 2026-05-03 20:36 | 49.67376 | 130.13426 | 23170 ft | 367 kts | 294° |
| 2026-05-03 20:36 | 49.68425 | 130.09900 | 22451 ft | 363 kts | 295° |
| 2026-05-03 20:37 | 49.69469 | 130.06406 | 21766 ft | 358 kts | 295° |
| 2026-05-03 20:37 | 49.70504 | 130.02949 | 21073 ft | 354 kts | 295° |
| 2026-05-03 20:37 | 49.71526 | 129.99542 | 20407 ft | 349 kts | 295° |
| 2026-05-03 20:37 | 49.72537 | 129.96175 | 19718 ft | 346 kts | 295° |
| 2026-05-03 20:38 | 49.73540 | 129.92835 | 19084 ft | 341 kts | 295° |
| 2026-05-03 20:38 | 49.74520 | 129.89568 | 18421 ft | 338 kts | 295° |
| 2026-05-03 20:38 | 49.75506 | 129.86298 | 17753 ft | 334 kts | 296° |
| 2026-05-03 20:38 | 49.76469 | 129.83054 | 17116 ft | 331 kts | 294° |
| 2026-05-03 20:39 | 49.77363 | 129.79800 | 16467 ft | 327 kts | 294° |
| 2026-05-03 20:39 | 49.78229 | 129.76605 | 15827 ft | 325 kts | 293° |
| 2026-05-03 20:39 | 49.79087 | 129.73402 | 15210 ft | 321 kts | 293° |
| 2026-05-03 20:39 | 49.79928 | 129.70245 | 14563 ft | 318 kts | 293° |
| 2026-05-03 20:40 | 49.80763 | 129.67107 | 13933 ft | 316 kts | 293° |
| 2026-05-03 20:40 | 49.81588 | 129.64004 | 13315 ft | 313 kts | 293° |
| 2026-05-03 20:40 | 49.82412 | 129.60907 | 12721 ft | 309 kts | 293° |
| 2026-05-03 20:40 | 49.83220 | 129.57867 | 12097 ft | 307 kts | 293° |
| 2026-05-03 20:41 | 49.84026 | 129.54840 | 11510 ft | 304 kts | 292° |
| 2026-05-03 20:41 | 49.84829 | 129.51827 | 10882 ft | 303 kts | 292° |
| 2026-05-03 20:41 | 49.85629 | 129.48833 | 10304 ft | 300 kts | 292° |
| 2026-05-03 20:41 | 49.86416 | 129.45875 | 9716 ft | 299 kts | 292° |
| 2026-05-03 20:42 | 49.87201 | 129.42921 | 9160 ft | 296 kts | 292° |
| 2026-05-03 20:42 | 49.87989 | 129.39973 | 8576 ft | 294 kts | 292° |
| 2026-05-03 20:42 | 49.88759 | 129.37102 | 8051 ft | 291 kts | 292° |
| 2026-05-03 20:42 | 49.89513 | 129.34286 | 7979 ft | 273 kts | 291° |
| 2026-05-03 20:43 | 49.90221 | 129.31645 | 7843 ft | 261 kts | 291° |
| 2026-05-03 20:43 | 49.90929 | 129.28998 | 7650 ft | 266 kts | 291° |
| 2026-05-03 20:43 | 49.91630 | 129.26373 | 7675 ft | 264 kts | 291° |
| 2026-05-03 20:43 | 49.92328 | 129.23767 | 7663 ft | 261 kts | 291° |
| 2026-05-03 20:44 | 49.93023 | 129.21178 | 7665 ft | 259 kts | 291° |
| 2026-05-03 20:44 | 49.93715 | 129.18600 | 7672 ft | 259 kts | 292° |
| 2026-05-03 20:44 | 49.94412 | 129.16008 | 7676 ft | 259 kts | 292° |
| 2026-05-03 20:44 | 49.95105 | 129.13440 | 7680 ft | 258 kts | 292° |
| 2026-05-03 20:45 | 49.95797 | 129.10875 | 7684 ft | 258 kts | 292° |
| 2026-05-03 20:45 | 49.96493 | 129.08302 | 7683 ft | 259 kts | 292° |
| 2026-05-03 20:45 | 49.97189 | 129.05739 | 7685 ft | 258 kts | 292° |
| 2026-05-03 20:45 | 49.97883 | 129.03178 | 7684 ft | 258 kts | 292° |
| 2026-05-03 20:46 | 49.98575 | 129.00627 | 7684 ft | 258 kts | 292° |
| 2026-05-03 20:46 | 49.99276 | 128.98042 | 7679 ft | 258 kts | 291° |
| 2026-05-03 20:46 | 49.99968 | 128.95487 | 7675 ft | 258 kts | 292° |
| 2026-05-03 20:46 | 50.00661 | 128.92931 | 7665 ft | 258 kts | 292° |
| 2026-05-03 20:47 | 50.01352 | 128.90389 | 7664 ft | 257 kts | 292° |
| 2026-05-03 20:47 | 50.02052 | 128.87804 | 7664 ft | 257 kts | 292° |
| 2026-05-03 20:47 | 50.02742 | 128.85259 | 7665 ft | 257 kts | 292° |
| 2026-05-03 20:47 | 50.03442 | 128.82683 | 7661 ft | 258 kts | 292° |
| 2026-05-03 20:48 | 50.04137 | 128.80136 | 7662 ft | 257 kts | 292° |
| 2026-05-03 20:48 | 50.04842 | 128.77562 | 7662 ft | 257 kts | 292° |
| 2026-05-03 20:48 | 50.05535 | 128.75029 | 7661 ft | 257 kts | 292° |
| 2026-05-03 20:48 | 50.06240 | 128.72461 | 7663 ft | 256 kts | 292° |
| 2026-05-03 20:49 | 50.06934 | 128.69934 | 7661 ft | 256 kts | 292° |
| 2026-05-03 20:49 | 50.07635 | 128.67366 | 7661 ft | 257 kts | 292° |
| 2026-05-03 20:49 | 50.08330 | 128.64824 | 7656 ft | 257 kts | 292° |
| 2026-05-03 20:49 | 50.09029 | 128.62265 | 7653 ft | 256 kts | 292° |
| 2026-05-03 20:50 | 50.09726 | 128.59721 | 7653 ft | 256 kts | 292° |
| 2026-05-03 20:50 | 50.10435 | 128.57136 | 7653 ft | 256 kts | 292° |
| 2026-05-03 20:50 | 50.11132 | 128.54597 | 7650 ft | 257 kts | 292° |
| 2026-05-03 20:50 | 50.11840 | 128.52022 | 7648 ft | 258 kts | 292° |
| 2026-05-03 20:51 | 50.12542 | 128.49468 | 7650 ft | 258 kts | 292° |
| 2026-05-03 20:51 | 50.13252 | 128.46893 | 7650 ft | 257 kts | 292° |
| 2026-05-03 20:51 | 50.13949 | 128.44363 | 7646 ft | 257 kts | 292° |
| 2026-05-03 20:51 | 50.14655 | 128.41803 | 7649 ft | 256 kts | 292° |
| 2026-05-03 20:52 | 50.15354 | 128.39273 | 7647 ft | 256 kts | 292° |
| 2026-05-03 20:52 | 50.16058 | 128.36734 | 7646 ft | 255 kts | 292° |
| 2026-05-03 20:52 | 50.16767 | 128.34178 | 7648 ft | 256 kts | 292° |
| 2026-05-03 20:52 | 50.17475 | 128.31618 | 7647 ft | 256 kts | 292° |
| 2026-05-03 20:53 | 50.18185 | 128.29062 | 7651 ft | 256 kts | 291° |
| 2026-05-03 20:53 | 50.18886 | 128.26535 | 7653 ft | 256 kts | 292° |
| 2026-05-03 20:53 | 50.19585 | 128.24005 | 7653 ft | 256 kts | 292° |
| 2026-05-03 20:53 | 50.20295 | 128.21442 | 7647 ft | 255 kts | 292° |
| 2026-05-03 20:54 | 50.20994 | 128.18921 | 7646 ft | 255 kts | 292° |
| 2026-05-03 20:54 | 50.22683 | 128.14090 | 7622 ft | 259 kts | 315° |
| 2026-05-03 20:54 | 50.24090 | 128.12337 | 7667 ft | 260 kts | 320° |
| 2026-05-03 20:55 | 50.25517 | 128.10635 | 7391 ft | 257 kts | 321° |
| 2026-05-03 20:55 | 50.26935 | 128.08980 | 7121 ft | 253 kts | 321° |
| 2026-05-03 20:55 | 50.28328 | 128.07349 | 6845 ft | 249 kts | 321° |
| 2026-05-03 20:55 | 50.29721 | 128.05714 | 6561 ft | 247 kts | 320° |
| 2026-05-03 20:56 | 50.31080 | 128.04118 | 6282 ft | 245 kts | 320° |
| 2026-05-03 20:56 | 50.32431 | 128.02519 | 6004 ft | 243 kts | 320° |
| 2026-05-03 20:56 | 50.33768 | 128.00926 | 5731 ft | 241 kts | 320° |
| 2026-05-03 20:56 | 50.35099 | 127.99346 | 5456 ft | 240 kts | 320° |
| 2026-05-03 20:57 | 50.36420 | 127.97781 | 5186 ft | 239 kts | 320° |
| 2026-05-03 20:57 | 50.37729 | 127.96223 | 4985 ft | 234 kts | 320° |
| 2026-05-03 20:57 | 50.38991 | 127.94722 | 4973 ft | 224 kts | 320° |
| 2026-05-03 20:57 | 50.40229 | 127.93253 | 4994 ft | 225 kts | 320° |
| 2026-05-03 20:58 | 50.41483 | 127.91763 | 4997 ft | 227 kts | 320° |
| 2026-05-03 20:58 | 50.42740 | 127.90269 | 4994 ft | 228 kts | 320° |
| 2026-05-03 20:58 | 50.44016 | 127.88749 | 4993 ft | 228 kts | 320° |
| 2026-05-03 20:58 | 50.45275 | 127.87244 | 4994 ft | 228 kts | 321° |
| 2026-05-03 20:59 | 50.46535 | 127.85738 | 4994 ft | 228 kts | 321° |
| 2026-05-03 20:59 | 50.47793 | 127.84237 | 4991 ft | 228 kts | 321° |
| 2026-05-03 20:59 | 50.49068 | 127.82719 | 4986 ft | 228 kts | 320° |
| 2026-05-03 20:59 | 50.50327 | 127.81219 | 4989 ft | 228 kts | 320° |
| 2026-05-03 21:00 | 50.51595 | 127.79704 | 4986 ft | 229 kts | 320° |
| 2026-05-03 21:00 | 50.52009 | 127.79207 | 4984 ft | 228 kts | 320° |
| 2026-05-03 21:00 | 50.53720 | 127.76144 | 4903 ft | 213 kts | 307° |
| 2026-05-03 21:00 | 50.54610 | 127.74394 | 4748 ft | 201 kts | 306° |
| 2026-05-03 21:01 | 50.55444 | 127.72749 | 4662 ft | 186 kts | 306° |
| 2026-05-03 21:01 | 50.56251 | 127.71152 | 4534 ft | 187 kts | 306° |
| 2026-05-03 21:01 | 50.57072 | 127.69540 | 4393 ft | 190 kts | 306° |
| 2026-05-03 21:01 | 50.57906 | 127.67905 | 4253 ft | 190 kts | 307° |
| 2026-05-03 21:02 | 50.58734 | 127.66283 | 4109 ft | 191 kts | 307° |
| 2026-05-03 21:02 | 50.59564 | 127.64664 | 3960 ft | 191 kts | 307° |
| 2026-05-03 21:02 | 50.60399 | 127.63026 | 3805 ft | 190 kts | 304° |
| 2026-05-03 21:02 | 50.60850 | 127.61144 | 3605 ft | 185 kts | 273° |
| 2026-05-03 21:03 | 50.60607 | 127.59178 | 3448 ft | 183 kts | 248° |
| 2026-05-03 21:03 | 50.60081 | 127.57388 | 3314 ft | 182 kts | 244° |
| 2026-05-03 21:03 | 50.59515 | 127.55613 | 3155 ft | 178 kts | 243° |
| 2026-05-03 21:03 | 50.58963 | 127.53923 | 2984 ft | 170 kts | 243° |
| 2026-05-03 21:04 | 50.58430 | 127.52290 | 2932 ft | 168 kts | 243° |
| 2026-05-03 21:04 | 50.57888 | 127.50636 | 2767 ft | 169 kts | 243° |
| 2026-05-03 21:04 | 50.57356 | 127.49015 | 2610 ft | 169 kts | 243° |
| 2026-05-03 21:04 | 50.56815 | 127.47359 | 2450 ft | 168 kts | 243° |
| 2026-05-03 21:05 | 50.56280 | 127.45727 | 2298 ft | 169 kts | 243° |
| 2026-05-03 21:05 | 50.55745 | 127.44093 | 2148 ft | 168 kts | 243° |
| 2026-05-03 21:05 | 50.55210 | 127.42464 | 2005 ft | 167 kts | 243° |
| 2026-05-03 21:05 | 50.54679 | 127.40847 | 1985 ft | 167 kts | 243° |
| 2026-05-03 21:06 | 50.54128 | 127.39254 | 1979 ft | 167 kts | 236° |
| 2026-05-03 21:06 | 50.53205 | 127.38152 | 1962 ft | 169 kts | 200° |
| 2026-05-03 21:06 | 50.52039 | 127.38258 | 1989 ft | 173 kts | 165° |
| 2026-05-03 21:06 | 50.50894 | 127.38789 | 2032 ft | 163 kts | 168° |
| 2026-05-03 21:07 | 50.49867 | 127.39194 | 1806 ft | 143 kts | 170° |
| 2026-05-03 21:07 | 50.48962 | 127.39507 | 1613 ft | 128 kts | 171° |
| 2026-05-03 21:07 | 50.48105 | 127.39789 | 1469 ft | 125 kts | 171° |
| 2026-05-03 21:07 | 50.47241 | 127.40069 | 1321 ft | 126 kts | 171° |
| 2026-05-03 21:08 | 50.46381 | 127.40347 | 1159 ft | 127 kts | 171° |
| 2026-05-03 21:08 | 50.45524 | 127.40627 | 985 ft | 128 kts | 171° |
| 2026-05-03 21:08 | 50.44650 | 127.40910 | 812 ft | 127 kts | 170° |
| 2026-05-03 21:08 | 50.43780 | 127.41200 | 654 ft | 127 kts | 171° |
| 2026-05-03 21:09 | 50.43142 | 127.41402 | 645 ft | 53 kts | 170° |
| 2026-05-03 21:09 | 50.42947 | 127.41467 | 645 ft | 17 kts | 169° |
| 2026-05-03 21:09 | 50.42850 | 127.41402 | 646 ft | 15 kts | 226° |
| 2026-05-03 21:09 | 50.42773 | 127.41296 | 645 ft | 14 kts | 219° |
| 2026-05-03 21:10 | 50.42696 | 127.41206 | 646 ft | 13 kts | 217° |
| 2026-05-03 21:10 | 50.42620 | 127.41119 | 646 ft | 13 kts | 217° |
| 2026-05-03 21:10 | 50.42549 | 127.41033 | 646 ft | 12 kts | 229° |
| 2026-05-03 21:10 | 50.42497 | 127.40949 | 646 ft | 10 kts | 181° |
| 2026-05-03 21:11 | 50.42432 | 127.40974 | 646 ft | 9 kts | 169° |
| 2026-05-03 21:11 | 50.42371 | 127.40994 | 646 ft | 8 kts | 167° |
| 2026-05-03 21:11 | 50.42326 | 127.40965 | 646 ft | 7 kts | 251° |
| 2026-05-03 21:11 | 50.42314 | 127.40891 | 646 ft | 5 kts | 260° |
| 2026-05-03 21:12 | 50.42313 | 127.40886 | 646 ft | 0 kts | 260° |